sensor_id;sensor_type;location;lat;lon;timestamp;temperature;humidity
46364;DHT22;32071;49.036;9.344;2023-02-14T00:00:18;-0.80;99.90
46364;DHT22;32071;49.036;9.344;2023-02-14T00:02:43;-0.90;99.90
46364;DHT22;32071;49.036;9.344;2023-02-14T00:05:09;-0.90;99.90
46364;DHT22;32071;49.036;9.344;2023-02-14T00:07:34;-0.90;99.90
46364;DHT22;32071;49.036;9.344;2023-02-14T00:10:00;-0.90;99.90
46364;DHT22;32071;49.036;9.344;2023-02-14T00:12:26;-1.00;99.90
46364;DHT22;32071;49.036;9.344;2023-02-14T00:14:51;-1.00;99.90
46364;DHT22;32071;49.036;9.344;2023-02-14T00:17:35;-1.10;99.90
46364;DHT22;32071;49.036;9.344;2023-02-14T00:20:01;-1.10;99.90
46364;DHT22;32071;49.036;9.344;2023-02-14T00:22:28;-1.20;99.90
46364;DHT22;32071;49.036;9.344;2023-02-14T00:24:53;-1.20;99.90
46364;DHT22;32071;49.036;9.344;2023-02-14T00:27:19;-1.20;99.90
46364;DHT22;32071;49.036;9.344;2023-02-14T00:29:44;-1.20;99.90
46364;DHT22;32071;49.036;9.344;2023-02-14T00:32:10;-1.20;99.90
46364;DHT22;32071;49.036;9.344;2023-02-14T00:34:36;-1.20;99.90
46364;DHT22;32071;49.036;9.344;2023-02-14T00:37:02;-1.10;99.90
46364;DHT22;32071;49.036;9.344;2023-02-14T00:39:28;-1.10;99.90
46364;DHT22;32071;49.036;9.344;2023-02-14T00:41:54;-1.10;99.90
46364;DHT22;32071;49.036;9.344;2023-02-14T00:44:19;-1.10;99.90
46364;DHT22;32071;49.036;9.344;2023-02-14T00:46:45;-1.10;99.90
46364;DHT22;32071;49.036;9.344;2023-02-14T00:49:10;-1.10;99.90
46364;DHT22;32071;49.036;9.344;2023-02-14T00:51:36;-1.10;99.90
46364;DHT22;32071;49.036;9.344;2023-02-14T00:54:02;-1.10;99.90
46364;DHT22;32071;49.036;9.344;2023-02-14T00:56:28;-1.10;99.90
46364;DHT22;32071;49.036;9.344;2023-02-14T00:58:53;-1.10;99.90
46364;DHT22;32071;49.036;9.344;2023-02-14T01:01:19;-1.10;99.90
46364;DHT22;32071;49.036;9.344;2023-02-14T01:03:46;-1.10;99.90
46364;DHT22;32071;49.036;9.344;2023-02-14T01:06:12;-1.10;99.90
46364;DHT22;32071;49.036;9.344;2023-02-14T01:08:37;-1.10;99.90
46364;DHT22;32071;49.036;9.344;2023-02-14T01:11:08;-1.10;99.90
46364;DHT22;32071;49.036;9.344;2023-02-14T01:13:34;-1.10;99.90
46364;DHT22;32071;49.036;9.344;2023-02-14T01:16:04;-1.10;99.90
46364;DHT22;32071;49.036;9.344;2023-02-14T01:18:32;-1.10;99.90
46364;DHT22;32071;49.036;9.344;2023-02-14T01:21:12;-1.10;99.90
46364;DHT22;32071;49.036;9.344;2023-02-14T01:23:38;-1.10;99.90
46364;DHT22;32071;49.036;9.344;2023-02-14T01:26:06;-1.10;99.90
46364;DHT22;32071;49.036;9.344;2023-02-14T01:28:32;-1.20;99.90
46364;DHT22;32071;49.036;9.344;2023-02-14T01:31:03;-1.20;99.90
46364;DHT22;32071;49.036;9.344;2023-02-14T01:33:29;-1.20;99.90
46364;DHT22;32071;49.036;9.344;2023-02-14T01:35:55;-1.20;99.90
46364;DHT22;32071;49.036;9.344;2023-02-14T01:38:20;-1.20;99.90
46364;DHT22;32071;49.036;9.344;2023-02-14T01:40:47;-1.20;99.90
46364;DHT22;32071;49.036;9.344;2023-02-14T01:43:14;-1.20;99.90
46364;DHT22;32071;49.036;9.344;2023-02-14T01:45:40;-1.20;99.90
46364;DHT22;32071;49.036;9.344;2023-02-14T01:48:05;-1.20;99.90
46364;DHT22;32071;49.036;9.344;2023-02-14T01:50:35;-1.20;99.90
46364;DHT22;32071;49.036;9.344;2023-02-14T01:53:07;-1.20;99.90
46364;DHT22;32071;49.036;9.344;2023-02-14T01:55:37;-1.20;99.90
46364;DHT22;32071;49.036;9.344;2023-02-14T01:58:20;-1.20;99.90
46364;DHT22;32071;49.036;9.344;2023-02-14T02:00:46;-1.20;99.90
46364;DHT22;32071;49.036;9.344;2023-02-14T02:03:37;-1.20;99.90
46364;DHT22;32071;49.036;9.344;2023-02-14T02:06:11;-1.20;99.90
46364;DHT22;32071;49.036;9.344;2023-02-14T02:08:42;-1.20;99.90
46364;DHT22;32071;49.036;9.344;2023-02-14T02:11:11;-1.20;99.90
46364;DHT22;32071;49.036;9.344;2023-02-14T02:13:38;-1.20;99.90
46364;DHT22;32071;49.036;9.344;2023-02-14T02:21:31;-1.20;99.90
46364;DHT22;32071;49.036;9.344;2023-02-14T02:27:10;-1.20;99.90
46364;DHT22;32071;49.036;9.344;2023-02-14T02:35:55;-1.30;99.90
46364;DHT22;32071;49.036;9.344;2023-02-14T02:38:37;-1.30;99.90
46364;DHT22;32071;49.036;9.344;2023-02-14T02:41:14;-1.30;99.90
46364;DHT22;32071;49.036;9.344;2023-02-14T02:47:04;-1.30;99.90
46364;DHT22;32071;49.036;9.344;2023-02-14T02:52:19;-1.30;99.90
46364;DHT22;32071;49.036;9.344;2023-02-14T02:55:15;-1.40;99.90
46364;DHT22;32071;49.036;9.344;2023-02-14T02:57:43;-1.40;99.90
46364;DHT22;32071;49.036;9.344;2023-02-14T03:00:11;-1.50;99.90
46364;DHT22;32071;49.036;9.344;2023-02-14T03:02:42;-1.40;99.90
46364;DHT22;32071;49.036;9.344;2023-02-14T03:05:28;-1.50;99.90
46364;DHT22;32071;49.036;9.344;2023-02-14T03:07:54;-1.50;99.90
46364;DHT22;32071;49.036;9.344;2023-02-14T03:10:22;-1.60;99.90
46364;DHT22;32071;49.036;9.344;2023-02-14T03:15:59;-1.60;99.90
46364;DHT22;32071;49.036;9.344;2023-02-14T03:19:14;-1.60;99.90
46364;DHT22;32071;49.036;9.344;2023-02-14T03:24:43;-1.60;99.90
46364;DHT22;32071;49.036;9.344;2023-02-14T03:27:16;-1.60;99.90
46364;DHT22;32071;49.036;9.344;2023-02-14T03:30:25;-1.50;99.90
46364;DHT22;32071;49.036;9.344;2023-02-14T03:32:50;-1.50;99.90
46364;DHT22;32071;49.036;9.344;2023-02-14T03:35:27;-1.60;99.90
46364;DHT22;32071;49.036;9.344;2023-02-14T03:40:54;-1.60;99.90
46364;DHT22;32071;49.036;9.344;2023-02-14T03:46:12;-1.60;99.90
46364;DHT22;32071;49.036;9.344;2023-02-14T03:48:41;-1.70;99.90
46364;DHT22;32071;49.036;9.344;2023-02-14T03:51:10;-1.70;99.90
46364;DHT22;32071;49.036;9.344;2023-02-14T03:53:40;-1.70;99.90
46364;DHT22;32071;49.036;9.344;2023-02-14T03:56:17;-1.70;99.90
46364;DHT22;32071;49.036;9.344;2023-02-14T03:58:48;-1.70;99.90
46364;DHT22;32071;49.036;9.344;2023-02-14T04:04:27;-1.70;99.90
46364;DHT22;32071;49.036;9.344;2023-02-14T04:06:55;-1.80;99.90
46364;DHT22;32071;49.036;9.344;2023-02-14T04:09:21;-1.80;99.90
46364;DHT22;32071;49.036;9.344;2023-02-14T04:11:46;-1.90;99.90
46364;DHT22;32071;49.036;9.344;2023-02-14T04:14:15;-1.80;99.90
46364;DHT22;32071;49.036;9.344;2023-02-14T04:16:40;-1.80;99.90
46364;DHT22;32071;49.036;9.344;2023-02-14T04:19:26;-1.80;99.90
46364;DHT22;32071;49.036;9.344;2023-02-14T04:21:52;-1.80;99.90
46364;DHT22;32071;49.036;9.344;2023-02-14T04:24:18;-1.80;99.90
46364;DHT22;32071;49.036;9.344;2023-02-14T04:26:44;-1.80;99.90
46364;DHT22;32071;49.036;9.344;2023-02-14T04:29:33;-1.80;99.90
46364;DHT22;32071;49.036;9.344;2023-02-14T04:31:58;-1.80;99.90
46364;DHT22;32071;49.036;9.344;2023-02-14T04:34:24;-1.80;99.90
46364;DHT22;32071;49.036;9.344;2023-02-14T04:36:49;-1.80;99.90
46364;DHT22;32071;49.036;9.344;2023-02-14T04:39:15;-1.90;99.90
46364;DHT22;32071;49.036;9.344;2023-02-14T04:41:40;-1.90;99.90
46364;DHT22;32071;49.036;9.344;2023-02-14T04:44:06;-1.90;99.90
46364;DHT22;32071;49.036;9.344;2023-02-14T04:46:31;-1.80;99.90
46364;DHT22;32071;49.036;9.344;2023-02-14T04:48:57;-1.90;99.90
46364;DHT22;32071;49.036;9.344;2023-02-14T04:51:24;-1.90;99.90
46364;DHT22;32071;49.036;9.344;2023-02-14T04:53:50;-1.90;99.90
46364;DHT22;32071;49.036;9.344;2023-02-14T04:56:16;-2.00;99.90
46364;DHT22;32071;49.036;9.344;2023-02-14T04:58:41;-2.00;99.90
46364;DHT22;32071;49.036;9.344;2023-02-14T05:01:07;-2.00;99.90
46364;DHT22;32071;49.036;9.344;2023-02-14T05:03:32;-2.00;99.90
46364;DHT22;32071;49.036;9.344;2023-02-14T05:05:58;-2.00;99.90
46364;DHT22;32071;49.036;9.344;2023-02-14T05:08:23;-2.00;99.90
46364;DHT22;32071;49.036;9.344;2023-02-14T05:10:49;-2.00;99.90
46364;DHT22;32071;49.036;9.344;2023-02-14T05:13:14;-2.00;99.90
46364;DHT22;32071;49.036;9.344;2023-02-14T05:15:43;-2.00;99.90
46364;DHT22;32071;49.036;9.344;2023-02-14T05:18:10;-2.00;99.90
46364;DHT22;32071;49.036;9.344;2023-02-14T05:20:36;-2.00;99.90
46364;DHT22;32071;49.036;9.344;2023-02-14T05:23:01;-2.00;99.90
46364;DHT22;32071;49.036;9.344;2023-02-14T05:25:29;-2.10;99.90
46364;DHT22;32071;49.036;9.344;2023-02-14T05:27:56;-2.10;99.90
46364;DHT22;32071;49.036;9.344;2023-02-14T05:30:22;-2.10;99.90
46364;DHT22;32071;49.036;9.344;2023-02-14T05:32:51;-2.20;99.90
46364;DHT22;32071;49.036;9.344;2023-02-14T05:35:17;-2.20;99.90
46364;DHT22;32071;49.036;9.344;2023-02-14T05:37:42;-2.20;99.90
46364;DHT22;32071;49.036;9.344;2023-02-14T05:40:08;-2.30;99.90
46364;DHT22;32071;49.036;9.344;2023-02-14T05:42:37;-2.30;99.90
46364;DHT22;32071;49.036;9.344;2023-02-14T05:45:03;-2.30;99.90
46364;DHT22;32071;49.036;9.344;2023-02-14T05:47:29;-2.30;99.90
46364;DHT22;32071;49.036;9.344;2023-02-14T05:49:55;-2.30;99.90
46364;DHT22;32071;49.036;9.344;2023-02-14T05:52:20;-2.30;99.90
46364;DHT22;32071;49.036;9.344;2023-02-14T05:54:46;-2.40;99.90
46364;DHT22;32071;49.036;9.344;2023-02-14T05:57:11;-2.40;99.90
46364;DHT22;32071;49.036;9.344;2023-02-14T05:59:37;-2.40;99.90
46364;DHT22;32071;49.036;9.344;2023-02-14T06:02:02;-2.40;99.90
46364;DHT22;32071;49.036;9.344;2023-02-14T06:04:28;-2.40;99.90
46364;DHT22;32071;49.036;9.344;2023-02-14T06:06:53;-2.50;99.90
46364;DHT22;32071;49.036;9.344;2023-02-14T06:09:19;-2.50;99.90
46364;DHT22;32071;49.036;9.344;2023-02-14T06:11:45;-2.60;99.90
46364;DHT22;32071;49.036;9.344;2023-02-14T06:14:10;-2.60;99.90
46364;DHT22;32071;49.036;9.344;2023-02-14T06:16:36;-2.70;99.90
46364;DHT22;32071;49.036;9.344;2023-02-14T06:19:01;-2.70;99.90
46364;DHT22;32071;49.036;9.344;2023-02-14T06:21:27;-2.70;99.90
46364;DHT22;32071;49.036;9.344;2023-02-14T06:23:52;-2.70;99.90
46364;DHT22;32071;49.036;9.344;2023-02-14T06:26:18;-2.70;99.90
46364;DHT22;32071;49.036;9.344;2023-02-14T06:28:43;-2.70;99.90
46364;DHT22;32071;49.036;9.344;2023-02-14T06:31:15;-2.80;99.90
46364;DHT22;32071;49.036;9.344;2023-02-14T06:33:41;-2.80;99.90
46364;DHT22;32071;49.036;9.344;2023-02-14T06:36:08;-2.90;99.90
46364;DHT22;32071;49.036;9.344;2023-02-14T06:38:33;-2.80;99.90
46364;DHT22;32071;49.036;9.344;2023-02-14T06:41:03;-2.80;99.90
46364;DHT22;32071;49.036;9.344;2023-02-14T06:43:29;-2.80;99.90
46364;DHT22;32071;49.036;9.344;2023-02-14T06:45:55;-2.80;99.90
46364;DHT22;32071;49.036;9.344;2023-02-14T06:48:20;-2.80;99.90
46364;DHT22;32071;49.036;9.344;2023-02-14T06:50:46;-2.80;99.90
46364;DHT22;32071;49.036;9.344;2023-02-14T06:53:13;-2.80;99.90
46364;DHT22;32071;49.036;9.344;2023-02-14T06:55:38;-2.80;99.90
46364;DHT22;32071;49.036;9.344;2023-02-14T06:58:04;-2.80;99.90
46364;DHT22;32071;49.036;9.344;2023-02-14T07:00:31;-2.80;99.90
46364;DHT22;32071;49.036;9.344;2023-02-14T07:02:57;-2.70;99.90
46364;DHT22;32071;49.036;9.344;2023-02-14T07:05:23;-2.70;99.90
46364;DHT22;32071;49.036;9.344;2023-02-14T07:07:48;-2.70;99.90
46364;DHT22;32071;49.036;9.344;2023-02-14T07:10:14;-2.60;99.90
46364;DHT22;32071;49.036;9.344;2023-02-14T07:12:40;-2.60;99.90
46364;DHT22;32071;49.036;9.344;2023-02-14T07:15:07;-2.60;99.90
46364;DHT22;32071;49.036;9.344;2023-02-14T07:17:33;-2.60;99.90
46364;DHT22;32071;49.036;9.344;2023-02-14T07:19:59;-2.60;99.90
46364;DHT22;32071;49.036;9.344;2023-02-14T07:22:24;-2.50;99.90
46364;DHT22;32071;49.036;9.344;2023-02-14T07:24:50;-2.50;99.90
46364;DHT22;32071;49.036;9.344;2023-02-14T07:27:16;-2.40;99.90
46364;DHT22;32071;49.036;9.344;2023-02-14T07:29:41;-2.30;99.90
46364;DHT22;32071;49.036;9.344;2023-02-14T07:32:07;-2.30;99.90
46364;DHT22;32071;49.036;9.344;2023-02-14T07:34:32;-2.20;99.90
46364;DHT22;32071;49.036;9.344;2023-02-14T07:36:59;-2.10;99.90
46364;DHT22;32071;49.036;9.344;2023-02-14T07:39:25;-2.00;99.90
46364;DHT22;32071;49.036;9.344;2023-02-14T07:41:50;-1.90;99.90
46364;DHT22;32071;49.036;9.344;2023-02-14T07:44:16;-1.80;99.90
46364;DHT22;32071;49.036;9.344;2023-02-14T07:46:41;-1.70;99.90
46364;DHT22;32071;49.036;9.344;2023-02-14T07:49:07;-1.70;99.90
46364;DHT22;32071;49.036;9.344;2023-02-14T07:51:33;-1.60;99.90
46364;DHT22;32071;49.036;9.344;2023-02-14T07:53:58;-1.50;99.90
46364;DHT22;32071;49.036;9.344;2023-02-14T07:56:24;-1.40;99.90
46364;DHT22;32071;49.036;9.344;2023-02-14T07:58:49;-1.30;99.90
46364;DHT22;32071;49.036;9.344;2023-02-14T08:01:15;-1.30;99.90
46364;DHT22;32071;49.036;9.344;2023-02-14T08:03:41;-1.20;99.90
46364;DHT22;32071;49.036;9.344;2023-02-14T08:06:10;-1.10;99.90
46364;DHT22;32071;49.036;9.344;2023-02-14T08:08:36;-1.00;99.90
46364;DHT22;32071;49.036;9.344;2023-02-14T08:11:01;-1.00;99.90
46364;DHT22;32071;49.036;9.344;2023-02-14T08:13:27;-0.90;99.90
46364;DHT22;32071;49.036;9.344;2023-02-14T08:15:53;-0.80;99.90
46364;DHT22;32071;49.036;9.344;2023-02-14T08:18:41;-0.70;99.90
46364;DHT22;32071;49.036;9.344;2023-02-14T08:21:08;-0.60;99.90
46364;DHT22;32071;49.036;9.344;2023-02-14T08:23:34;-0.60;99.90
46364;DHT22;32071;49.036;9.344;2023-02-14T08:29:25;-0.40;99.90
46364;DHT22;32071;49.036;9.344;2023-02-14T08:31:51;-0.30;99.90
46364;DHT22;32071;49.036;9.344;2023-02-14T08:34:17;-0.20;99.90
46364;DHT22;32071;49.036;9.344;2023-02-14T08:36:43;-0.10;99.90
46364;DHT22;32071;49.036;9.344;2023-02-14T08:39:08;-0.10;99.90
46364;DHT22;32071;49.036;9.344;2023-02-14T08:41:34;-0.10;99.90
46364;DHT22;32071;49.036;9.344;2023-02-14T08:44:00;0.00;99.90
46364;DHT22;32071;49.036;9.344;2023-02-14T08:46:27;0.00;99.90
46364;DHT22;32071;49.036;9.344;2023-02-14T08:48:53;0.10;99.90
46364;DHT22;32071;49.036;9.344;2023-02-14T08:51:20;0.20;99.90
46364;DHT22;32071;49.036;9.344;2023-02-14T08:53:50;0.30;99.90
46364;DHT22;32071;49.036;9.344;2023-02-14T08:56:16;0.30;99.90
46364;DHT22;32071;49.036;9.344;2023-02-14T08:58:43;0.40;99.90
46364;DHT22;32071;49.036;9.344;2023-02-14T09:01:10;0.50;99.90
46364;DHT22;32071;49.036;9.344;2023-02-14T09:03:36;0.60;99.90
46364;DHT22;32071;49.036;9.344;2023-02-14T09:06:12;0.70;99.90
46364;DHT22;32071;49.036;9.344;2023-02-14T09:08:41;0.80;99.90
46364;DHT22;32071;49.036;9.344;2023-02-14T09:11:08;0.90;99.90
46364;DHT22;32071;49.036;9.344;2023-02-14T09:13:34;1.00;99.90
46364;DHT22;32071;49.036;9.344;2023-02-14T09:16:04;1.10;99.90
46364;DHT22;32071;49.036;9.344;2023-02-14T09:18:30;1.20;99.90
46364;DHT22;32071;49.036;9.344;2023-02-14T09:20:55;1.30;99.90
46364;DHT22;32071;49.036;9.344;2023-02-14T09:23:21;1.40;99.90
46364;DHT22;32071;49.036;9.344;2023-02-14T09:25:46;1.40;99.90
46364;DHT22;32071;49.036;9.344;2023-02-14T09:28:12;1.50;99.90
46364;DHT22;32071;49.036;9.344;2023-02-14T09:30:37;1.60;99.90
46364;DHT22;32071;49.036;9.344;2023-02-14T09:33:03;1.70;99.90
46364;DHT22;32071;49.036;9.344;2023-02-14T09:35:30;1.80;99.90
46364;DHT22;32071;49.036;9.344;2023-02-14T09:38:14;1.90;99.90
46364;DHT22;32071;49.036;9.344;2023-02-14T09:40:46;2.00;99.90
46364;DHT22;32071;49.036;9.344;2023-02-14T09:45:38;2.20;99.90
46364;DHT22;32071;49.036;9.344;2023-02-14T09:48:21;2.30;99.90
46364;DHT22;32071;49.036;9.344;2023-02-14T09:50:53;2.40;99.90
46364;DHT22;32071;49.036;9.344;2023-02-14T09:53:28;2.50;99.90
46364;DHT22;32071;49.036;9.344;2023-02-14T09:56:21;2.70;99.90
46364;DHT22;32071;49.036;9.344;2023-02-14T09:59:08;2.80;99.90
46364;DHT22;32071;49.036;9.344;2023-02-14T10:01:44;2.90;99.90
46364;DHT22;32071;49.036;9.344;2023-02-14T10:04:31;3.00;99.90
46364;DHT22;32071;49.036;9.344;2023-02-14T10:07:23;3.10;99.90
46364;DHT22;32071;49.036;9.344;2023-02-14T10:12:35;3.20;99.90
46364;DHT22;32071;49.036;9.344;2023-02-14T10:15:32;3.30;99.90
46364;DHT22;32071;49.036;9.344;2023-02-14T10:18:24;3.30;99.90
46364;DHT22;32071;49.036;9.344;2023-02-14T10:20:59;3.40;99.90
46364;DHT22;32071;49.036;9.344;2023-02-14T10:23:40;3.50;99.90
46364;DHT22;32071;49.036;9.344;2023-02-14T10:26:20;3.60;99.90
46364;DHT22;32071;49.036;9.344;2023-02-14T10:28:49;3.70;99.90
46364;DHT22;32071;49.036;9.344;2023-02-14T10:31:39;3.80;99.90
46364;DHT22;32071;49.036;9.344;2023-02-14T10:34:19;3.80;99.90
46364;DHT22;32071;49.036;9.344;2023-02-14T10:39:39;4.10;99.90
46364;DHT22;32071;49.036;9.344;2023-02-14T10:48:00;4.40;99.90
46364;DHT22;32071;49.036;9.344;2023-02-14T10:50:45;4.50;99.90
46364;DHT22;32071;49.036;9.344;2023-02-14T10:53:40;4.60;99.90
46364;DHT22;32071;49.036;9.344;2023-02-14T10:56:17;4.70;99.90
46364;DHT22;32071;49.036;9.344;2023-02-14T10:58:45;4.80;99.90
46364;DHT22;32071;49.036;9.344;2023-02-14T11:01:15;5.00;99.90
46364;DHT22;32071;49.036;9.344;2023-02-14T11:03:52;5.10;99.90
46364;DHT22;32071;49.036;9.344;2023-02-14T11:06:18;5.10;99.90
46364;DHT22;32071;49.036;9.344;2023-02-14T11:08:44;5.20;99.90
46364;DHT22;32071;49.036;9.344;2023-02-14T11:11:21;5.30;99.90
46364;DHT22;32071;49.036;9.344;2023-02-14T11:13:48;5.40;99.90
46364;DHT22;32071;49.036;9.344;2023-02-14T11:16:36;5.50;99.90
46364;DHT22;32071;49.036;9.344;2023-02-14T11:19:32;5.60;99.90
46364;DHT22;32071;49.036;9.344;2023-02-14T11:21:59;5.60;99.90
46364;DHT22;32071;49.036;9.344;2023-02-14T11:24:31;5.70;99.90
46364;DHT22;32071;49.036;9.344;2023-02-14T11:29:44;5.90;99.90
46364;DHT22;32071;49.036;9.344;2023-02-14T11:32:25;6.00;99.90
46364;DHT22;32071;49.036;9.344;2023-02-14T11:35:06;6.10;99.90
46364;DHT22;32071;49.036;9.344;2023-02-14T11:37:43;6.30;99.90
46364;DHT22;32071;49.036;9.344;2023-02-14T11:40:30;6.40;99.90
46364;DHT22;32071;49.036;9.344;2023-02-14T11:43:25;6.50;99.90
46364;DHT22;32071;49.036;9.344;2023-02-14T11:46:07;6.60;99.90
46364;DHT22;32071;49.036;9.344;2023-02-14T11:48:37;6.60;99.90
46364;DHT22;32071;49.036;9.344;2023-02-14T11:51:13;6.70;99.90
46364;DHT22;32071;49.036;9.344;2023-02-14T11:53:52;6.70;99.90
46364;DHT22;32071;49.036;9.344;2023-02-14T11:56:21;6.70;99.90
46364;DHT22;32071;49.036;9.344;2023-02-14T11:58:53;6.70;99.90
46364;DHT22;32071;49.036;9.344;2023-02-14T12:01:23;6.80;99.90
46364;DHT22;32071;49.036;9.344;2023-02-14T12:03:51;6.90;99.90
46364;DHT22;32071;49.036;9.344;2023-02-14T12:06:28;6.90;99.90
46364;DHT22;32071;49.036;9.344;2023-02-14T12:12:12;7.10;99.90
46364;DHT22;32071;49.036;9.344;2023-02-14T12:14:39;7.20;99.90
46364;DHT22;32071;49.036;9.344;2023-02-14T12:20:14;7.30;99.90
46364;DHT22;32071;49.036;9.344;2023-02-14T12:22:46;7.40;99.90
46364;DHT22;32071;49.036;9.344;2023-02-14T12:27:44;7.50;99.90
46364;DHT22;32071;49.036;9.344;2023-02-14T12:30:15;7.60;99.90
46364;DHT22;32071;49.036;9.344;2023-02-14T12:32:49;7.60;99.90
46364;DHT22;32071;49.036;9.344;2023-02-14T12:35:53;7.70;99.90
46364;DHT22;32071;49.036;9.344;2023-02-14T12:41:07;7.80;99.90
46364;DHT22;32071;49.036;9.344;2023-02-14T12:49:15;7.80;99.90
46364;DHT22;32071;49.036;9.344;2023-02-14T12:54:56;8.00;99.90
46364;DHT22;32071;49.036;9.344;2023-02-14T12:57:56;8.00;99.90
46364;DHT22;32071;49.036;9.344;2023-02-14T13:00:37;8.10;99.90
46364;DHT22;32071;49.036;9.344;2023-02-14T13:06:03;8.30;99.90
46364;DHT22;32071;49.036;9.344;2023-02-14T13:17:17;8.40;99.90
46364;DHT22;32071;49.036;9.344;2023-02-14T13:22:42;8.60;99.90
46364;DHT22;32071;49.036;9.344;2023-02-14T13:25:41;8.70;99.90
46364;DHT22;32071;49.036;9.344;2023-02-14T13:28:14;8.70;99.90
46364;DHT22;32071;49.036;9.344;2023-02-14T13:30:40;8.70;99.90
46364;DHT22;32071;49.036;9.344;2023-02-14T13:33:29;8.70;99.90
46364;DHT22;32071;49.036;9.344;2023-02-14T13:36:08;8.70;99.90
46364;DHT22;32071;49.036;9.344;2023-02-14T13:38:43;8.80;99.90
46364;DHT22;32071;49.036;9.344;2023-02-14T13:41:11;8.80;99.90
46364;DHT22;32071;49.036;9.344;2023-02-14T13:43:50;8.80;99.90
46364;DHT22;32071;49.036;9.344;2023-02-14T13:46:19;8.90;99.90
46364;DHT22;32071;49.036;9.344;2023-02-14T13:49:00;8.90;99.90
46364;DHT22;32071;49.036;9.344;2023-02-14T13:51:45;8.90;99.90
46364;DHT22;32071;49.036;9.344;2023-02-14T13:57:02;8.90;99.90
46364;DHT22;32071;49.036;9.344;2023-02-14T13:59:33;9.00;99.90
46364;DHT22;32071;49.036;9.344;2023-02-14T14:04:50;9.00;99.90
46364;DHT22;32071;49.036;9.344;2023-02-14T14:07:22;8.90;99.90
46364;DHT22;32071;49.036;9.344;2023-02-14T14:17:37;8.90;99.90
46364;DHT22;32071;49.036;9.344;2023-02-14T14:22:56;8.90;99.90
46364;DHT22;32071;49.036;9.344;2023-02-14T14:25:37;8.90;99.90
46364;DHT22;32071;49.036;9.344;2023-02-14T14:28:24;8.90;99.90
46364;DHT22;32071;49.036;9.344;2023-02-14T14:30:51;8.90;99.90
46364;DHT22;32071;49.036;9.344;2023-02-14T14:33:31;8.90;99.90
46364;DHT22;32071;49.036;9.344;2023-02-14T14:36:06;9.00;99.90
46364;DHT22;32071;49.036;9.344;2023-02-14T14:38:34;8.90;99.90
46364;DHT22;32071;49.036;9.344;2023-02-14T14:47:30;8.80;99.90
46364;DHT22;32071;49.036;9.344;2023-02-14T14:50:04;8.80;99.90
46364;DHT22;32071;49.036;9.344;2023-02-14T14:52:39;8.70;99.90
46364;DHT22;32071;49.036;9.344;2023-02-14T14:55:07;8.60;99.90
46364;DHT22;32071;49.036;9.344;2023-02-14T15:00:50;8.70;99.90
46364;DHT22;32071;49.036;9.344;2023-02-14T15:03:22;8.70;99.90
46364;DHT22;32071;49.036;9.344;2023-02-14T15:05:50;8.60;99.90
46364;DHT22;32071;49.036;9.344;2023-02-14T15:11:21;8.50;99.90
46364;DHT22;32071;49.036;9.344;2023-02-14T15:14:14;8.40;99.90
46364;DHT22;32071;49.036;9.344;2023-02-14T15:16:49;8.30;99.90
46364;DHT22;32071;49.036;9.344;2023-02-14T15:19:22;8.40;99.90
46364;DHT22;32071;49.036;9.344;2023-02-14T15:21:51;8.30;99.90
46364;DHT22;32071;49.036;9.344;2023-02-14T15:24:17;8.40;99.90
46364;DHT22;32071;49.036;9.344;2023-02-14T15:26:45;8.40;99.90
46364;DHT22;32071;49.036;9.344;2023-02-14T15:29:20;8.30;99.90
46364;DHT22;32071;49.036;9.344;2023-02-14T15:31:47;8.30;99.90
46364;DHT22;32071;49.036;9.344;2023-02-14T15:34:13;8.20;99.90
46364;DHT22;32071;49.036;9.344;2023-02-14T15:36:40;8.20;99.90
46364;DHT22;32071;49.036;9.344;2023-02-14T15:39:07;8.10;99.90
46364;DHT22;32071;49.036;9.344;2023-02-14T15:41:34;8.00;99.90
46364;DHT22;32071;49.036;9.344;2023-02-14T15:44:00;8.00;99.90
46364;DHT22;32071;49.036;9.344;2023-02-14T15:48:57;7.80;99.90
46364;DHT22;32071;49.036;9.344;2023-02-14T15:51:30;7.70;99.90
46364;DHT22;32071;49.036;9.344;2023-02-14T15:53:57;7.60;99.90
46364;DHT22;32071;49.036;9.344;2023-02-14T15:56:28;7.60;99.90
46364;DHT22;32071;49.036;9.344;2023-02-14T15:59:03;7.50;99.90
46364;DHT22;32071;49.036;9.344;2023-02-14T16:01:30;7.40;99.90
46364;DHT22;32071;49.036;9.344;2023-02-14T16:03:59;7.30;99.90
46364;DHT22;32071;49.036;9.344;2023-02-14T16:06:40;7.30;99.90
46364;DHT22;32071;49.036;9.344;2023-02-14T16:09:30;7.20;99.90
46364;DHT22;32071;49.036;9.344;2023-02-14T16:11:58;7.10;99.90
46364;DHT22;32071;49.036;9.344;2023-02-14T16:14:31;7.00;99.90
46364;DHT22;32071;49.036;9.344;2023-02-14T16:17:30;6.90;99.90
46364;DHT22;32071;49.036;9.344;2023-02-14T16:19:56;6.80;99.90
46364;DHT22;32071;49.036;9.344;2023-02-14T16:22:26;6.70;99.90
46364;DHT22;32071;49.036;9.344;2023-02-14T16:24:57;6.60;99.90
46364;DHT22;32071;49.036;9.344;2023-02-14T16:27:23;6.50;99.90
46364;DHT22;32071;49.036;9.344;2023-02-14T16:29:49;6.50;99.90
46364;DHT22;32071;49.036;9.344;2023-02-14T16:32:22;6.40;99.90
46364;DHT22;32071;49.036;9.344;2023-02-14T16:34:48;6.20;99.90
46364;DHT22;32071;49.036;9.344;2023-02-14T16:37:20;6.10;99.90
46364;DHT22;32071;49.036;9.344;2023-02-14T16:39:46;5.90;99.90
46364;DHT22;32071;49.036;9.344;2023-02-14T16:42:16;5.60;99.90
46364;DHT22;32071;49.036;9.344;2023-02-14T16:44:43;5.40;99.90
46364;DHT22;32071;49.036;9.344;2023-02-14T16:47:14;5.20;99.90
46364;DHT22;32071;49.036;9.344;2023-02-14T16:49:40;5.00;99.90
46364;DHT22;32071;49.036;9.344;2023-02-14T16:52:13;4.80;99.90
46364;DHT22;32071;49.036;9.344;2023-02-14T16:54:40;4.60;99.90
46364;DHT22;32071;49.036;9.344;2023-02-14T16:57:07;4.40;99.90
46364;DHT22;32071;49.036;9.344;2023-02-14T16:59:36;4.30;99.90
46364;DHT22;32071;49.036;9.344;2023-02-14T17:02:01;4.20;99.90
46364;DHT22;32071;49.036;9.344;2023-02-14T17:04:27;4.00;99.90
46364;DHT22;32071;49.036;9.344;2023-02-14T17:06:54;3.90;99.90
46364;DHT22;32071;49.036;9.344;2023-02-14T17:09:24;3.80;99.90
46364;DHT22;32071;49.036;9.344;2023-02-14T17:11:53;3.60;99.90
46364;DHT22;32071;49.036;9.344;2023-02-14T17:14:26;3.50;99.90
46364;DHT22;32071;49.036;9.344;2023-02-14T17:16:54;3.30;99.90
46364;DHT22;32071;49.036;9.344;2023-02-14T17:19:20;3.20;99.90
46364;DHT22;32071;49.036;9.344;2023-02-14T17:21:46;3.10;99.90
46364;DHT22;32071;49.036;9.344;2023-02-14T17:24:12;3.00;99.90
46364;DHT22;32071;49.036;9.344;2023-02-14T17:26:38;2.80;99.90
46364;DHT22;32071;49.036;9.344;2023-02-14T17:29:04;2.80;99.90
46364;DHT22;32071;49.036;9.344;2023-02-14T17:31:31;2.70;99.90
46364;DHT22;32071;49.036;9.344;2023-02-14T17:33:57;2.70;99.90
46364;DHT22;32071;49.036;9.344;2023-02-14T17:36:22;2.60;99.90
46364;DHT22;32071;49.036;9.344;2023-02-14T17:38:50;2.50;99.90
46364;DHT22;32071;49.036;9.344;2023-02-14T17:41:18;2.50;99.90
46364;DHT22;32071;49.036;9.344;2023-02-14T17:43:46;2.40;99.90
46364;DHT22;32071;49.036;9.344;2023-02-14T17:46:13;2.30;99.90
46364;DHT22;32071;49.036;9.344;2023-02-14T17:48:39;2.30;99.90
46364;DHT22;32071;49.036;9.344;2023-02-14T17:51:06;2.20;99.90
46364;DHT22;32071;49.036;9.344;2023-02-14T17:53:33;2.20;99.90
46364;DHT22;32071;49.036;9.344;2023-02-14T17:56:04;2.10;99.90
46364;DHT22;32071;49.036;9.344;2023-02-14T17:58:29;2.00;99.90